createdAt,value
2022-10-19T00:01:13.250Z,2.20
2022-10-19T00:03:41.031Z,2.80
2022-10-19T00:06:28.950Z,2.70
2022-10-19T00:08:56.995Z,2.07
2022-10-19T00:11:24.112Z,1.97
2022-10-19T00:13:51.713Z,2.00
2022-10-19T00:16:19.311Z,3.23
2022-10-19T00:18:46.230Z,2.73
2022-10-19T00:21:15.970Z,2.67
2022-10-19T00:23:44.071Z,2.43
2022-10-19T00:26:11.208Z,2.30
2022-10-19T00:28:38.223Z,1.90
2022-10-19T00:31:07.478Z,2.37
2022-10-19T00:33:34.432Z,1.60
2022-10-19T00:36:01.763Z,2.13
2022-10-19T00:38:28.635Z,2.47
2022-10-19T00:40:55.640Z,1.93
2022-10-19T00:43:28.075Z,2.10
2022-10-19T00:45:54.928Z,1.65
2022-10-19T00:48:26.663Z,2.87
2022-10-19T00:50:56.402Z,2.33
2022-10-19T00:53:26.344Z,2.00
2022-10-19T00:55:53.441Z,2.40
2022-10-19T00:58:20.472Z,2.20
2022-10-19T01:00:47.402Z,1.97
2022-10-19T01:03:14.618Z,2.30
2022-10-19T01:05:41.651Z,1.90
2022-10-19T01:08:09.760Z,1.87
2022-10-19T01:10:57.629Z,2.97
2022-10-19T01:14:01.628Z,2.00
2022-10-19T01:16:37.609Z,2.30
2022-10-19T01:19:38.110Z,2.37
2022-10-19T01:22:23.174Z,3.03
2022-10-19T01:25:13.511Z,2.27
2022-10-19T01:28:02.396Z,2.17
2022-10-19T01:30:41.754Z,2.00
2022-10-19T01:33:29.916Z,1.60
2022-10-19T01:36:08.514Z,2.23
2022-10-19T01:38:52.693Z,2.57
2022-10-19T01:41:39.674Z,2.07
2022-10-19T01:44:26.162Z,1.70
2022-10-19T01:47:03.342Z,2.17
2022-10-19T01:50:48.080Z,3.10
2022-10-19T01:54:14.520Z,2.10
2022-10-19T02:01:33.118Z,1.43
2022-10-19T02:04:59.523Z,1.60
2022-10-19T02:08:26.129Z,1.53
2022-10-19T02:11:56.134Z,1.63
2022-10-19T02:15:23.859Z,1.27
2022-10-19T02:18:50.294Z,2.03
2022-10-19T02:22:16.922Z,1.67
2022-10-19T02:25:43.410Z,1.57
2022-10-19T02:29:09.992Z,1.40
2022-10-19T02:36:19.381Z,2.23
2022-10-19T02:39:45.831Z,1.40
2022-10-19T02:43:12.477Z,2.43
2022-10-19T02:46:41.717Z,1.40
2022-10-19T02:50:08.499Z,1.80
2022-10-19T02:53:40.339Z,1.30
2022-10-19T02:57:07.017Z,1.50
2022-10-19T03:00:33.542Z,2.50
2022-10-19T03:04:00.176Z,1.57
2022-10-19T03:11:09.356Z,1.73
2022-10-19T03:14:35.768Z,1.47
2022-10-19T03:27:43.453Z,1.77
2022-10-19T03:30:13.536Z,2.17
2022-10-19T03:32:40.239Z,1.80
2022-10-19T03:35:07.783Z,1.80
2022-10-19T03:37:34.768Z,1.97
2022-10-19T03:40:01.689Z,2.03
2022-10-19T03:42:28.622Z,2.47
2022-10-19T03:44:55.360Z,2.40
2022-10-19T03:47:22.093Z,2.30
2022-10-19T03:49:50.623Z,2.30
2022-10-19T03:52:18.919Z,2.30
2022-10-19T03:54:46.593Z,2.63
2022-10-19T03:57:13.553Z,2.70
2022-10-19T03:59:40.225Z,2.37
2022-10-19T04:02:07.777Z,2.83
2022-10-19T04:04:34.713Z,2.57
2022-10-19T04:07:01.413Z,2.90
2022-10-19T04:09:28.149Z,2.90
2022-10-19T04:11:55.035Z,2.93
2022-10-19T04:14:32.099Z,2.83
2022-10-19T04:17:01.071Z,2.87
2022-10-19T04:19:27.835Z,3.20
2022-10-19T04:21:54.474Z,3.13
2022-10-19T04:24:21.692Z,2.20
2022-10-19T04:26:54.454Z,2.50
2022-10-19T04:31:54.727Z,2.37
2022-10-19T04:34:21.394Z,4.23
2022-10-19T04:36:48.379Z,3.73
2022-10-19T04:39:15.308Z,3.13
2022-10-19T04:41:41.955Z,3.37
2022-10-19T04:44:10.262Z,3.63
2022-10-19T04:46:40.738Z,3.50
2022-10-19T04:49:09.158Z,4.80
2022-10-19T04:51:36.152Z,3.77
2022-10-19T04:54:04.223Z,2.67
2022-10-19T04:56:32.516Z,2.73
2022-10-19T04:59:00.957Z,2.77
2022-10-19T05:01:29.660Z,2.30
2022-10-19T05:03:58.483Z,3.17
2022-10-19T05:06:26.175Z,2.80
2022-10-19T05:08:53.192Z,3.50
2022-10-19T05:11:20.199Z,3.40
2022-10-19T05:13:47.110Z,2.60
2022-10-19T05:16:18.028Z,3.03
2022-10-19T05:18:50.219Z,3.03
2022-10-19T05:21:17.863Z,3.72
2022-10-19T05:23:44.912Z,2.40
2022-10-19T05:26:20.238Z,3.73
2022-10-19T05:28:56.411Z,3.50
2022-10-19T05:31:25.816Z,1.80
2022-10-19T05:33:52.646Z,3.70
2022-10-19T05:36:27.671Z,3.10
2022-10-19T05:38:58.073Z,3.07
2022-10-19T05:41:25.908Z,2.77
2022-10-19T05:43:55.096Z,3.07
2022-10-19T05:46:22.323Z,3.27
2022-10-19T05:48:49.183Z,3.87
2022-10-19T05:51:18.879Z,3.00
2022-10-19T05:53:46.198Z,4.17
2022-10-19T05:56:18.956Z,3.90
2022-10-19T06:01:14.045Z,5.90
2022-10-19T06:03:41.456Z,4.70
2022-10-19T06:06:09.307Z,4.87
2022-10-19T06:08:37.140Z,4.87
2022-10-19T06:11:15.819Z,5.00
2022-10-19T06:13:44.021Z,5.10
2022-10-19T06:16:12.657Z,3.80
2022-10-19T06:18:39.919Z,4.20
2022-10-19T06:21:10.685Z,5.00
2022-10-19T06:23:37.857Z,5.63
2022-10-19T06:26:07.376Z,6.97
2022-10-19T06:28:34.452Z,4.73
2022-10-19T06:31:01.475Z,5.17
2022-10-19T06:33:30.392Z,4.63
2022-10-19T06:36:04.803Z,5.20
2022-10-19T06:38:31.642Z,5.03
2022-10-19T06:40:59.236Z,5.53
2022-10-19T06:43:26.007Z,4.47
2022-10-19T06:45:52.862Z,3.83
2022-10-19T06:48:19.615Z,4.00
2022-10-19T06:50:46.318Z,4.50
2022-10-19T06:53:13.266Z,6.43
2022-10-19T06:55:39.972Z,4.87
2022-10-19T06:58:06.604Z,4.60
2022-10-19T07:00:33.472Z,4.30
2022-10-19T07:03:00.630Z,6.10
2022-10-19T07:05:27.348Z,4.70
2022-10-19T07:07:54.346Z,4.87
2022-10-19T07:10:21.053Z,5.13
2022-10-19T07:12:47.643Z,4.97
2022-10-19T07:15:14.811Z,4.80
2022-10-19T07:17:41.550Z,5.10
2022-10-19T07:20:08.738Z,6.70
2022-10-19T07:22:35.722Z,6.00
2022-10-19T07:25:02.446Z,5.33
2022-10-19T07:27:30.305Z,5.60
2022-10-19T07:29:59.563Z,4.40
2022-10-19T07:32:26.289Z,4.80
2022-10-19T07:34:53.021Z,4.90
2022-10-19T07:38:19.725Z,4.50
2022-10-19T07:45:33.291Z,5.43
2022-10-19T07:48:59.724Z,5.50
2022-10-19T07:56:18.709Z,5.03
2022-10-19T07:59:45.140Z,5.77
2022-10-19T08:07:01.086Z,5.57
2022-10-19T08:14:19.959Z,4.93
2022-10-19T08:17:46.376Z,5.17
2022-10-19T08:25:04.389Z,6.83
2022-10-19T08:28:30.967Z,6.43
2022-10-19T08:30:59.200Z,6.40
2022-10-19T08:33:26.682Z,5.83
2022-10-19T08:35:56.694Z,5.33
2022-10-19T08:38:23.678Z,5.97
2022-10-19T08:40:50.410Z,5.87
2022-10-19T08:43:28.756Z,5.80
2022-10-19T08:46:14.304Z,5.50
2022-10-19T08:48:43.447Z,6.53
2022-10-19T08:51:13.265Z,7.87
2022-10-19T08:53:54.767Z,5.67
2022-10-19T08:56:50.351Z,5.40
2022-10-19T08:59:43.086Z,5.33
2022-10-19T09:02:16.995Z,6.23
2022-10-19T09:04:49.913Z,6.10
2022-10-19T09:07:22.796Z,5.53
2022-10-19T09:09:54.769Z,5.93
2022-10-19T09:12:47.933Z,5.25
2022-10-19T09:15:28.413Z,5.75
2022-10-19T09:17:55.113Z,6.17
2022-10-19T09:20:29.784Z,4.80
2022-10-19T09:23:07.677Z,4.40
2022-10-19T09:25:39.565Z,4.97
2022-10-19T09:28:29.199Z,4.03
2022-10-19T09:31:01.817Z,3.60
2022-10-19T09:33:33.045Z,4.20
2022-10-19T09:36:02.713Z,3.27
2022-10-19T09:38:31.566Z,4.87
2022-10-19T09:41:01.613Z,3.20
2022-10-19T09:43:28.452Z,3.40
2022-10-19T09:46:18.585Z,3.63
2022-10-19T09:48:52.388Z,3.40
2022-10-19T09:51:20.786Z,3.13
2022-10-19T09:53:54.126Z,3.50
2022-10-19T09:56:26.232Z,2.90
2022-10-19T09:58:55.555Z,3.00
2022-10-19T10:01:40.110Z,2.40
2022-10-19T10:04:18.634Z,2.70
2022-10-19T10:06:48.875Z,2.43
2022-10-19T10:09:23.667Z,2.60
2022-10-19T10:11:51.398Z,2.50
2022-10-19T10:14:23.917Z,2.57
2022-10-19T10:16:56.740Z,2.72
2022-10-19T10:21:58.204Z,2.37
2022-10-19T10:24:30.461Z,3.60
2022-10-19T10:27:05.926Z,2.90
2022-10-19T10:29:35.513Z,3.13
2022-10-19T10:32:13.855Z,3.37
2022-10-19T10:34:53.080Z,3.97
2022-10-19T10:37:29.692Z,3.60
2022-10-19T10:40:01.752Z,4.37
2022-10-19T10:42:38.199Z,2.57
2022-10-19T10:45:09.964Z,3.30
2022-10-19T10:47:39.533Z,4.60
2022-10-19T10:50:07.497Z,3.70
2022-10-19T10:52:36.156Z,5.37
2022-10-19T10:55:18.307Z,5.33
2022-10-19T10:57:49.741Z,4.10
2022-10-19T11:00:20.019Z,3.93
2022-10-19T11:02:52.650Z,4.80
2022-10-19T11:05:27.363Z,4.38
2022-10-19T11:08:03.573Z,3.10
2022-10-19T11:10:34.464Z,3.80
2022-10-19T11:13:28.696Z,4.40
2022-10-19T11:16:05.272Z,4.03
2022-10-19T11:18:42.468Z,3.47
2022-10-19T11:21:14.931Z,3.43
2022-10-19T11:23:48.480Z,3.78
2022-10-19T11:26:30.565Z,3.80
2022-10-19T11:29:06.290Z,4.10
2022-10-19T11:31:33.034Z,4.80
2022-10-19T11:34:04.502Z,5.03
2022-10-19T11:36:56.175Z,4.40
2022-10-19T11:39:47.672Z,4.70
2022-10-19T11:42:14.499Z,4.33
2022-10-19T11:45:05.882Z,6.00
2022-10-19T11:47:51.782Z,3.93
2022-10-19T11:50:38.458Z,4.40
2022-10-19T11:53:08.147Z,4.40
2022-10-19T11:55:56.356Z,4.67
2022-10-19T11:58:41.352Z,5.50
2022-10-19T12:01:25.397Z,3.97
2022-10-19T12:04:22.597Z,4.43
2022-10-19T12:07:20.693Z,5.00
2022-10-19T12:09:56.698Z,4.80
2022-10-19T12:12:35.604Z,5.77
2022-10-19T12:15:11.770Z,4.33
2022-10-19T12:17:41.789Z,4.93
2022-10-19T12:20:35.327Z,4.53
2022-10-19T12:23:21.565Z,5.00
2022-10-19T12:25:49.680Z,4.87
2022-10-19T12:28:26.872Z,5.57
2022-10-19T12:30:55.070Z,8.40
2022-10-19T12:33:53.729Z,6.07
2022-10-19T12:37:33.669Z,7.57
2022-10-19T12:40:43.351Z,5.40
2022-10-19T12:44:16.217Z,6.70
2022-10-19T12:54:32.590Z,6.30
2022-10-19T12:57:29.924Z,6.07
2022-10-19T13:00:20.431Z,8.13
2022-10-19T13:02:55.683Z,4.97
2022-10-19T13:05:24.675Z,7.37
2022-10-19T13:07:52.254Z,4.50
2022-10-19T13:10:23.624Z,7.60
2022-10-19T13:12:51.075Z,6.63
2022-10-19T13:15:36.252Z,9.83
2022-10-19T13:18:15.866Z,6.57
2022-10-19T13:20:53.382Z,4.17
2022-10-19T13:23:28.959Z,4.50
2022-10-19T13:26:39.912Z,7.23
2022-10-19T13:29:24.827Z,4.73
2022-10-19T13:31:51.850Z,5.07
2022-10-19T13:34:18.657Z,6.23
2022-10-19T13:37:03.364Z,5.00
2022-10-19T13:39:30.368Z,4.07
2022-10-19T13:41:57.424Z,5.13
2022-10-19T13:44:31.361Z,3.67
2022-10-19T13:47:47.652Z,2.87
2022-10-19T13:50:14.394Z,3.80
2022-10-19T13:53:03.098Z,2.90
2022-10-19T13:56:00.590Z,4.33
2022-10-19T13:58:39.093Z,4.73
2022-10-19T14:01:31.870Z,3.53
2022-10-19T14:04:13.969Z,3.70
2022-10-19T14:07:05.152Z,4.30
2022-10-19T14:09:40.816Z,4.40
2022-10-19T14:12:16.166Z,2.93
2022-10-19T14:14:44.878Z,3.20
2022-10-19T14:20:02.227Z,4.17
2022-10-19T14:22:33.608Z,3.60
2022-10-19T14:25:06.803Z,3.03
2022-10-19T14:27:35.137Z,5.20
2022-10-19T14:30:02.485Z,2.77
2022-10-19T14:32:30.256Z,3.50
2022-10-19T14:37:36.969Z,2.73
2022-10-19T14:40:06.373Z,3.50
2022-10-19T14:42:42.349Z,3.37
2022-10-19T14:45:15.013Z,3.40
2022-10-19T14:47:55.794Z,3.17
2022-10-19T14:50:54.853Z,3.30
2022-10-19T14:53:32.046Z,3.30
2022-10-19T14:56:03.879Z,3.03
2022-10-19T14:58:38.569Z,4.22
2022-10-19T15:01:06.297Z,2.67
2022-10-19T15:03:33.634Z,3.30
2022-10-19T15:06:04.733Z,3.57
2022-10-19T15:08:47.943Z,4.67
2022-10-19T15:11:30.517Z,3.80
2022-10-19T15:14:22.209Z,4.35
2022-10-19T15:16:59.345Z,5.77
2022-10-19T15:19:39.521Z,4.30
2022-10-19T15:22:09.008Z,5.00
2022-10-19T15:24:36.728Z,3.23
2022-10-19T15:27:31.509Z,4.33
2022-10-19T15:30:05.260Z,4.60
2022-10-19T15:32:36.082Z,4.23
2022-10-19T15:35:12.123Z,5.13
2022-10-19T15:37:45.450Z,3.93
2022-10-19T15:40:19.034Z,4.07
2022-10-19T15:42:49.009Z,5.13
2022-10-19T15:45:31.829Z,4.90
2022-10-19T15:48:10.629Z,4.45
2022-10-19T15:50:45.108Z,4.23
2022-10-19T15:53:12.088Z,4.37
2022-10-19T15:55:38.782Z,4.87
2022-10-19T15:58:05.642Z,3.87
2022-10-19T16:00:32.974Z,5.20
2022-10-19T16:02:59.817Z,4.17
2022-10-19T16:05:26.563Z,4.63
2022-10-19T16:07:53.694Z,5.40
2022-10-19T16:10:27.419Z,3.83
2022-10-19T16:12:54.723Z,4.77
2022-10-19T16:15:23.441Z,5.93
2022-10-19T16:17:56.486Z,6.70
2022-10-19T16:20:25.165Z,7.23
2022-10-19T16:22:52.874Z,5.43
2022-10-19T16:25:20.461Z,3.50
2022-10-19T16:27:47.237Z,5.63
2022-10-19T16:30:14.089Z,4.53
2022-10-19T16:35:10.130Z,7.30
2022-10-19T16:37:37.375Z,4.93
2022-10-19T16:40:05.431Z,4.87
2022-10-19T16:42:33.372Z,7.87
2022-10-19T16:45:01.368Z,8.17
2022-10-19T16:47:28.267Z,7.63
2022-10-19T16:50:02.482Z,7.50
2022-10-19T16:52:32.254Z,5.30
2022-10-19T16:54:59.966Z,6.40
2022-10-19T16:57:26.890Z,3.83
2022-10-19T16:59:54.745Z,7.17
2022-10-19T17:02:22.519Z,5.77
2022-10-19T17:04:49.224Z,6.63
2022-10-19T17:07:16.672Z,8.17
2022-10-19T17:09:43.518Z,7.10
2022-10-19T17:12:11.367Z,5.20
2022-10-19T17:14:40.595Z,4.50
2022-10-19T17:21:51.092Z,10.57
2022-10-19T17:25:17.529Z,7.33
2022-10-19T17:28:44.153Z,5.43
2022-10-19T17:32:13.735Z,5.80
2022-10-19T17:39:33.118Z,5.10
2022-10-19T17:42:59.750Z,4.23
2022-10-19T17:50:08.262Z,5.10
2022-10-19T17:53:34.673Z,4.10
2022-10-19T18:00:53.677Z,4.73
2022-10-19T18:04:20.130Z,4.63
2022-10-19T18:10:38.827Z,4.97
2022-10-19T18:13:05.618Z,5.50
2022-10-19T18:15:32.279Z,4.97
2022-10-19T18:17:59.726Z,4.97
2022-10-19T18:20:26.620Z,6.00
2022-10-19T18:22:53.358Z,5.07
2022-10-19T18:25:25.850Z,4.80
2022-10-19T18:28:02.722Z,5.50
2022-10-19T18:30:29.859Z,5.00
2022-10-19T18:32:56.543Z,5.40
2022-10-19T18:35:23.328Z,4.50
2022-10-19T18:37:51.778Z,5.70
2022-10-19T18:40:18.499Z,4.97
2022-10-19T18:42:45.404Z,4.80
2022-10-19T18:45:12.463Z,4.93
2022-10-19T18:47:39.189Z,4.30
2022-10-19T18:50:06.399Z,4.90
2022-10-19T18:52:36.527Z,5.00
2022-10-19T18:55:03.981Z,6.63
2022-10-19T18:57:31.888Z,4.40
2022-10-19T18:59:59.374Z,4.63
2022-10-19T19:02:34.725Z,3.93
2022-10-19T19:05:02.337Z,3.93
2022-10-19T19:07:29.271Z,4.70
2022-10-19T19:09:56.042Z,3.13
2022-10-19T19:12:23.765Z,3.70
2022-10-19T19:14:50.524Z,5.47
2022-10-19T19:17:17.330Z,3.70
2022-10-19T19:19:44.665Z,3.23
2022-10-19T19:22:11.358Z,3.93
2022-10-19T19:24:38.208Z,4.37
2022-10-19T19:27:05.198Z,3.70
2022-10-19T19:29:32.134Z,5.67
2022-10-19T19:31:59.017Z,4.90
2022-10-19T19:34:26.064Z,4.03
2022-10-19T19:36:52.782Z,3.97
2022-10-19T19:39:21.298Z,3.90
2022-10-19T19:41:49.841Z,4.33
2022-10-19T19:44:17.421Z,4.17
2022-10-19T19:46:44.564Z,4.40
2022-10-19T19:49:11.978Z,4.23
2022-10-19T19:51:38.876Z,3.60
2022-10-19T19:54:05.880Z,5.33
2022-10-19T19:56:33.111Z,2.87
2022-10-19T19:59:03.827Z,3.90
2022-10-19T20:01:31.362Z,4.70
2022-10-19T20:03:59.935Z,4.97
2022-10-19T20:06:26.986Z,3.90
2022-10-19T20:08:55.588Z,4.87
2022-10-19T20:11:24.536Z,5.67
2022-10-19T20:13:51.495Z,5.50
2022-10-19T20:16:30.362Z,4.80
2022-10-19T20:19:04.011Z,5.03
2022-10-19T20:21:32.137Z,4.80
2022-10-19T20:23:59.508Z,4.17
2022-10-19T20:26:26.879Z,5.43
2022-10-19T20:28:54.282Z,4.23
2022-10-19T20:31:21.473Z,4.60
2022-10-19T20:33:48.440Z,4.60
2022-10-19T20:36:22.245Z,6.80
2022-10-19T20:38:54.417Z,4.37
2022-10-19T20:41:23.596Z,5.20
2022-10-19T20:43:51.815Z,4.53
2022-10-19T20:46:22.346Z,5.00
2022-10-19T20:48:50.475Z,4.53
2022-10-19T20:51:30.667Z,4.80
2022-10-19T20:54:00.542Z,5.03
2022-10-19T20:56:29.955Z,4.93
2022-10-19T20:59:05.735Z,4.90
2022-10-19T21:01:34.809Z,5.03
2022-10-19T21:04:04.725Z,5.20
2022-10-19T21:06:35.048Z,5.03
2022-10-19T21:09:01.930Z,4.33
2022-10-19T21:11:31.903Z,5.20
2022-10-19T21:14:04.590Z,5.17
2022-10-19T21:16:34.066Z,5.47
2022-10-19T21:19:02.102Z,5.87
2022-10-19T21:21:31.558Z,5.47
2022-10-19T21:24:04.845Z,5.27
2022-10-19T21:26:33.897Z,5.33
2022-10-19T21:29:01.830Z,5.30
2022-10-19T21:31:28.924Z,4.77
2022-10-19T21:33:55.977Z,4.93
2022-10-19T21:36:25.368Z,4.47
2022-10-19T21:39:52.125Z,5.70
2022-10-19T21:43:18.598Z,3.47
2022-10-19T21:46:45.257Z,4.90
2022-10-19T21:50:11.702Z,5.70
2022-10-19T21:57:30.390Z,6.63
2022-10-19T22:00:57.053Z,7.10
2022-10-19T22:04:23.818Z,6.30
2022-10-19T22:06:50.923Z,6.03
2022-10-19T22:09:20.515Z,5.20
2022-10-19T22:11:47.803Z,5.40
2022-10-19T22:14:16.499Z,6.60
2022-10-19T22:16:43.927Z,6.23
2022-10-19T22:19:11.530Z,6.13
2022-10-19T22:24:13.685Z,5.53
2022-10-19T22:26:43.472Z,4.67
2022-10-19T22:29:10.125Z,4.53
2022-10-19T22:31:37.501Z,5.17
2022-10-19T22:34:12.067Z,5.10
2022-10-19T22:36:38.978Z,5.67
2022-10-19T22:39:05.675Z,5.53
2022-10-19T22:42:19.079Z,6.50
2022-10-19T22:44:46.487Z,5.17
2022-10-19T22:47:13.146Z,4.40
2022-10-19T22:49:39.904Z,4.70
2022-10-19T22:52:06.600Z,4.33
2022-10-19T22:54:33.245Z,5.43
2022-10-19T22:56:59.997Z,5.10
2022-10-19T22:59:26.742Z,4.30
2022-10-19T23:01:53.585Z,3.80
2022-10-19T23:04:21.507Z,5.90
2022-10-19T23:06:48.186Z,5.10
2022-10-19T23:09:35.051Z,4.87
2022-10-19T23:12:01.993Z,4.20
2022-10-19T23:14:28.701Z,5.00
2022-10-19T23:16:55.558Z,5.60
2022-10-19T23:19:22.208Z,6.13
2022-10-19T23:21:48.933Z,3.80
2022-10-19T23:24:16.201Z,4.80
2022-10-19T23:26:42.903Z,4.60
2022-10-19T23:29:10.574Z,4.50
2022-10-19T23:31:38.444Z,5.73
2022-10-19T23:34:05.090Z,4.70
2022-10-19T23:36:31.747Z,4.30
2022-10-19T23:38:59.308Z,5.40
2022-10-19T23:41:26.068Z,4.70
2022-10-19T23:43:52.723Z,5.80
2022-10-19T23:46:20.134Z,5.40
2022-10-19T23:48:46.783Z,5.40
2022-10-19T23:51:16.269Z,4.57
2022-10-19T23:53:45.659Z,6.40
2022-10-19T23:56:13.638Z,5.40
2022-10-19T23:59:40.227Z,5.63
